Time;durP1;ratioP1;P1;durP2;ratioP2;P2;SDS_P1;SDS_P2;PMS_P1;PMS_P2;Temp;Humidity;BMP_temperature;BMP_pressure;BME280_temperature;BME280_humidity;BME280_pressure;Samples;Min_cycle;Max_cycle;Signal;HPM_P1;HPM_P2
2022/07/19 00:00:15;;;;;;;5.47;3.43;;;19.60;51.00;;;18.81;51.27;98407.50;4989982;28;20483;-72
2022/07/19 00:02:43;;;;;;;4.97;3.20;;;19.50;51.00;;;18.79;51.12;98411.56;4991273;28;20472;-75
2022/07/19 00:05:13;;;;;;;3.67;3.37;;;19.50;51.00;;;18.71;51.76;98412.88;4989823;28;21334;-75
2022/07/19 00:07:41;;;;;;;3.73;3.30;;;19.40;51.20;;;18.36;51.51;98365.75;4990628;28;20467;-73
2022/07/19 00:10:11;;;;;;;3.37;3.07;;;19.30;51.10;;;18.64;51.30;98398.56;4991490;28;20465;-73
2022/07/19 00:12:40;;;;;;;5.17;3.87;;;19.40;51.10;;;18.64;51.19;98404.88;4989265;28;20456;-74
2022/07/19 00:15:10;;;;;;;3.40;3.10;;;19.40;51.00;;;18.67;51.12;98409.81;4986414;28;20462;-74
2022/07/19 00:17:41;;;;;;;3.73;3.33;;;19.40;51.00;;;18.57;51.41;98409.72;4991156;28;20464;-73
2022/07/19 00:20:13;;;;;;;3.00;2.80;;;19.30;51.00;;;18.44;51.61;98404.69;4995645;28;20487;-75
2022/07/19 00:22:40;;;;;;;3.87;3.20;;;19.20;51.10;;;18.05;51.64;98343.56;5006563;28;20482;-76
2022/07/19 00:25:08;;;;;;;4.10;3.70;;;19.20;51.20;;;18.49;51.98;98400.06;5011481;28;20471;-74
2022/07/19 00:27:36;;;;;;;4.60;3.40;;;19.20;51.30;;;18.51;51.51;98410.75;5004865;28;20553;-72
2022/07/19 00:30:05;;;;;;;6.07;3.77;;;19.20;51.30;;;18.53;51.65;98403.13;4995042;28;20451;-74
2022/07/19 00:32:33;;;;;;;3.77;3.47;;;19.20;51.40;;;18.41;51.95;98400.53;4994478;28;20463;-72
2022/07/19 00:35:00;;;;;;;4.17;3.17;;;19.10;51.40;;;18.34;52.27;98406.22;4994394;28;20990;-73
2022/07/19 00:37:29;;;;;;;4.43;3.70;;;19.10;51.60;;;18.19;52.62;98404.13;4997931;28;20457;-73
2022/07/19 00:39:57;;;;;;;3.73;3.40;;;19.00;51.60;;;18.19;52.82;98403.31;4993948;28;20459;-72
2022/07/19 00:42:24;;;;;;;3.57;3.27;;;19.00;51.80;;;18.18;52.90;98398.94;4995425;28;20473;-73
2022/07/19 00:44:51;;;;;;;3.97;3.57;;;18.90;51.90;;;18.11;53.17;98401.84;5007852;28;23193;-74
2022/07/19 00:47:19;;;;;;;5.07;3.53;;;18.90;52.00;;;18.12;52.77;98404.34;4992174;28;20795;-74
2022/07/19 00:49:46;;;;;;;5.13;3.43;;;18.90;52.00;;;18.10;53.01;98389.25;4994114;28;20463;-74
2022/07/19 00:52:15;;;;;;;4.77;3.50;;;18.90;52.10;;;17.94;53.54;98400.00;5013739;28;20981;-74
2022/07/19 00:54:46;;;;;;;9.33;3.57;;;18.80;52.20;;;17.96;54.07;98410.66;4991274;28;20463;-75
2022/07/19 00:57:15;;;;;;;3.43;3.13;;;18.80;52.50;;;17.80;54.03;98410.47;4997608;28;20455;-76
2022/07/19 00:59:45;;;;;;;4.87;3.70;;;18.60;52.60;;;17.68;54.37;98415.22;5008604;28;20544;-73
2022/07/19 01:02:14;;;;;;;3.03;2.80;;;18.40;52.80;;;17.56;54.90;98412.59;4992095;28;20973;-76
2022/07/19 01:04:41;;;;;;;6.40;3.83;;;18.30;53.10;;;17.41;55.59;98422.22;4993386;28;20472;-72
2022/07/19 01:07:09;;;;;;;6.77;4.03;;;18.20;53.60;;;17.53;55.13;98424.03;5003872;28;20566;-76
2022/07/19 01:09:37;;;;;;;5.70;3.50;;;18.20;53.70;;;17.53;55.09;98418.56;4989770;28;20510;-74
2022/07/19 01:12:08;;;;;;;3.80;3.50;;;18.30;53.70;;;17.56;55.12;98424.34;4996317;28;20475;-71
2022/07/19 01:14:36;;;;;;;4.43;3.73;;;18.30;53.60;;;17.65;54.58;98421.19;4991312;28;20566;-73
2022/07/19 01:17:04;;;;;;;4.13;3.37;;;18.40;53.60;;;17.67;54.63;98425.31;4997432;28;20509;-71
2022/07/19 01:19:32;;;;;;;9.27;3.77;;;18.40;53.40;;;17.60;54.84;98429.31;4995286;28;20537;-76
2022/07/19 01:22:00;;;;;;;3.63;3.40;;;18.40;53.70;;;17.52;55.02;98420.47;5014204;28;20471;-72
2022/07/19 01:24:28;;;;;;;7.10;3.80;;;18.30;53.50;;;17.54;54.61;98414.75;4997036;28;21017;-75
2022/07/19 01:26:56;;;;;;;3.83;3.50;;;18.40;53.30;;;17.57;54.37;98425.16;4998130;28;20469;-73
2022/07/19 01:29:23;;;;;;;3.60;3.30;;;18.40;53.40;;;17.53;54.49;98421.28;5000263;28;20459;-73
2022/07/19 01:31:51;;;;;;;4.33;3.93;;;18.30;53.30;;;17.45;54.78;98417.09;4998753;28;20521;-72
2022/07/19 01:34:18;;;;;;;5.10;3.60;;;18.30;53.40;;;17.40;54.89;98423.28;4998444;28;20466;-72
2022/07/19 01:36:45;;;;;;;4.50;3.80;;;18.20;53.70;;;17.42;54.83;98417.59;4997153;28;20684;-72
2022/07/19 01:39:14;;;;;;;3.83;3.53;;;18.20;53.40;;;17.34;55.03;98420.75;5009566;28;20467;-75
2022/07/19 01:41:42;;;;;;;4.03;3.20;;;18.20;53.40;;;17.31;54.82;98413.06;5004830;28;21009;-72
2022/07/19 01:44:09;;;;;;;4.70;3.90;;;18.20;53.60;;;17.34;55.15;98418.00;5003143;28;20836;-71
2022/07/19 01:46:36;;;;;;;5.60;3.60;;;18.10;53.50;;;17.33;54.68;98409.00;5003208;28;20493;-73
2022/07/19 01:49:04;;;;;;;3.80;3.43;;;18.10;53.50;;;17.28;54.82;98417.09;5003439;28;20455;-72
2022/07/19 01:51:31;;;;;;;4.07;3.40;;;18.10;53.50;;;17.31;54.84;98411.16;5005051;28;20463;-71
2022/07/19 01:53:59;;;;;;;3.90;3.30;;;18.10;53.60;;;17.30;54.81;98414.13;5000827;28;20456;-73
2022/07/19 01:56:28;;;;;;;4.30;3.90;;;18.10;53.60;;;17.33;54.77;98410.88;5000492;28;20865;-74
2022/07/19 01:58:55;;;;;;;3.80;3.50;;;18.10;53.90;;;17.24;55.10;98411.34;5000719;28;20467;-73
2022/07/19 02:01:22;;;;;;;6.00;3.90;;;18.10;53.60;;;17.04;54.92;98389.16;5001557;28;21272;-72
2022/07/19 02:03:50;;;;;;;5.03;3.90;;;18.00;53.70;;;17.21;54.97;98411.84;5005194;28;20548;-73
2022/07/19 02:06:17;;;;;;;4.10;3.40;;;17.90;53.70;;;17.19;55.29;98408.50;4998616;28;20477;-74
2022/07/19 02:08:44;;;;;;;3.90;3.50;;;18.00;53.80;;;17.14;55.10;98402.97;5002637;28;20564;-74
2022/07/19 02:13:59;;;;;;;4.33;3.80;;;17.90;53.80;;;16.96;55.55;98383.03;5017289;28;20475;-72
2022/07/19 02:16:26;;;;;;;3.63;3.33;;;17.90;54.00;;;17.02;55.81;98400.34;5016316;28;20456;-73
2022/07/19 02:18:54;;;;;;;4.10;3.50;;;17.80;54.00;;;16.98;55.80;98408.16;5003144;28;20463;-74
2022/07/19 02:21:21;;;;;;;3.83;3.40;;;17.80;54.10;;;16.94;55.88;98400.72;4994235;28;20525;-72
2022/07/19 02:23:48;;;;;;;4.30;3.90;;;17.80;54.10;;;16.92;55.82;98398.25;4992843;28;20483;-72
2022/07/19 02:26:15;;;;;;;6.30;4.33;;;17.80;54.10;;;16.90;56.13;98405.81;5005078;28;20502;-73
2022/07/19 02:28:43;;;;;;;4.00;3.70;;;17.70;54.10;;;16.89;56.26;98404.16;4992457;28;20491;-72
2022/07/19 02:31:12;;;;;;;3.50;3.30;;;17.70;54.30;;;16.83;56.28;98400.56;4990816;28;20456;-73
2022/07/19 02:33:39;;;;;;;6.30;3.60;;;17.70;54.50;;;16.79;56.25;98398.56;4993282;28;20467;-73
2022/07/19 02:36:07;;;;;;;4.10;3.70;;;17.60;54.50;;;16.51;56.10;98357.44;5007298;28;20531;-72
2022/07/19 02:38:34;;;;;;;3.80;3.50;;;17.60;54.50;;;16.72;56.60;98409.63;5006584;28;20455;-75
2022/07/19 02:41:01;;;;;;;5.20;3.73;;;17.60;54.60;;;16.49;56.86;98386.84;4993137;28;20460;-73
2022/07/19 02:43:29;;;;;;;5.70;3.77;;;17.50;54.80;;;16.65;56.57;98409.78;4995171;28;20460;-72
2022/07/19 02:45:56;;;;;;;3.90;3.60;;;17.50;54.80;;;16.50;56.95;98401.34;4991004;28;20518;-72
2022/07/19 02:48:25;;;;;;;3.83;3.40;;;17.40;55.00;;;16.51;56.99;98411.16;5010199;28;20468;-72
2022/07/19 02:50:52;;;;;;;5.13;3.50;;;17.30;55.00;;;16.60;56.84;98412.41;4992683;28;20467;-74
2022/07/19 02:53:20;;;;;;;3.93;3.53;;;17.30;55.20;;;16.61;56.98;98414.09;4993918;28;21243;-74
2022/07/19 02:55:47;;;;;;;3.53;3.23;;;17.30;55.20;;;16.52;57.03;98421.81;4993819;28;20520;-73
2022/07/19 02:58:14;;;;;;;4.90;3.80;;;17.30;55.30;;;16.47;57.23;98423.66;4994908;28;20467;-73
2022/07/19 03:00:42;;;;;;;4.37;3.97;;;17.20;55.40;;;16.14;56.97;98375.03;4990295;28;20464;-74
2022/07/19 03:05:57;;;;;;;4.00;3.50;;;17.30;55.60;;;16.52;57.20;98432.72;4989659;28;20475;-74
2022/07/19 03:08:24;;;;;;;4.50;4.10;;;17.30;55.60;;;16.49;57.15;98438.66;4994669;28;20561;-73
2022/07/19 03:10:51;;;;;;;5.10;3.87;;;17.30;55.60;;;16.38;57.81;98426.75;4999419;28;20459;-74
2022/07/19 03:13:19;;;;;;;4.40;4.00;;;17.20;55.70;;;16.33;58.27;98423.94;5007398;28;20470;-73
2022/07/19 03:15:46;;;;;;;4.33;4.03;;;17.20;56.00;;;16.29;58.37;98423.59;4998459;28;20522;-74
2022/07/19 03:18:13;;;;;;;6.13;3.67;;;17.10;56.30;;;16.32;58.17;98422.28;5008796;28;20452;-74
2022/07/19 03:20:41;;;;;;;3.77;3.47;;;17.10;56.30;;;15.76;58.95;98349.19;5005465;28;20727;-76
2022/07/19 03:23:10;;;;;;;4.50;4.20;;;17.10;56.80;;;16.13;58.80;98419.72;5000603;28;20472;-73
2022/07/19 03:25:37;;;;;;;6.00;4.13;;;17.00;56.50;;;16.09;58.76;98429.44;5000453;28;20472;-70
2022/07/19 03:28:05;;;;;;;4.00;3.70;;;17.00;56.70;;;16.14;58.86;98426.81;4998868;28;20463;-75
2022/07/19 03:30:32;;;;;;;3.63;3.43;;;17.00;56.90;;;16.06;59.11;98424.50;4998635;28;20469;-75
2022/07/19 03:33:00;;;;;;;4.33;3.93;;;16.90;57.00;;;16.11;58.90;98426.50;4997563;28;21050;-72
2022/07/19 03:35:28;;;;;;;5.40;4.13;;;16.90;57.10;;;16.11;58.82;98421.84;4995225;28;20460;-71
2022/07/19 03:37:55;;;;;;;4.77;4.33;;;17.00;57.20;;;16.12;58.56;98425.44;4992945;28;20467;-72
2022/07/19 03:40:24;;;;;;;4.73;4.33;;;17.00;57.30;;;16.20;58.67;98427.75;4992974;28;20496;-73
2022/07/19 03:42:51;;;;;;;6.50;3.90;;;17.00;57.20;;;16.18;58.20;98418.19;4995247;28;20883;-73
2022/07/19 03:45:18;;;;;;;4.13;3.77;;;17.10;57.00;;;16.18;58.40;98412.72;4989772;28;20534;-72
2022/07/19 03:47:46;;;;;;;4.80;4.33;;;17.10;57.10;;;16.18;58.59;98423.63;4995121;28;20471;-75
2022/07/19 03:50:13;;;;;;;4.53;4.10;;;17.00;57.00;;;16.17;58.08;98411.88;5006175;28;20455;-74
2022/07/19 03:52:40;;;;;;;4.40;4.00;;;17.00;56.90;;;16.17;58.13;98413.81;4990258;28;20459;-77
2022/07/19 03:55:08;;;;;;;4.47;4.07;;;17.00;56.90;;;16.17;58.30;98408.34;4989240;28;20459;-73
2022/07/19 03:57:37;;;;;;;5.10;4.60;;;17.10;57.00;;;16.30;57.95;98427.13;4992342;28;20457;-73
2022/07/19 04:00:06;;;;;;;5.03;4.33;;;17.20;56.90;;;16.37;57.75;98430.53;4994231;28;20463;-71
2022/07/19 04:02:34;;;;;;;4.60;4.17;;;17.20;56.80;;;16.38;57.80;98425.94;4994463;28;20951;-75
2022/07/19 04:05:01;;;;;;;5.30;4.37;;;17.20;56.80;;;16.35;57.78;98413.59;5003014;28;20475;-73
2022/07/19 04:07:29;;;;;;;4.77;4.27;;;17.30;56.90;;;16.35;57.84;98427.25;4989339;28;20455;-72
2022/07/19 04:09:57;;;;;;;4.60;4.23;;;17.30;57.00;;;16.40;57.95;98430.06;4988405;28;20574;-73
2022/07/19 04:12:25;;;;;;;4.67;4.27;;;17.30;57.00;;;16.43;57.80;98431.47;4988561;28;20534;-75
2022/07/19 04:14:53;;;;;;;4.13;3.73;;;17.30;57.00;;;16.50;57.57;98434.06;5004574;28;20456;-76
2022/07/19 04:17:21;;;;;;;4.70;4.30;;;17.40;57.00;;;16.75;56.99;98435.56;4997017;28;20459;-73
2022/07/19 04:19:48;;;;;;;4.30;3.90;;;17.50;56.90;;;17.50;54.68;98430.81;4986192;28;20467;-76
2022/07/19 04:22:16;;;;;;;3.80;3.50;;;18.20;56.00;;;18.23;52.77;98431.78;4988861;28;20459;-73
2022/07/19 04:24:43;;;;;;;7.30;4.90;;;19.20;54.80;;;18.64;51.39;98431.41;5004215;28;20561;-74
2022/07/19 04:27:10;;;;;;;6.20;4.20;;;19.80;53.40;;;18.82;50.75;98430.22;4988086;28;20854;-73
2022/07/19 04:29:38;;;;;;;4.83;4.27;;;20.20;52.50;;;19.59;49.15;98432.75;4988730;28;20468;-72
2022/07/19 04:32:08;;;;;;;4.93;3.83;;;20.80;52.10;;;20.79;45.83;98434.03;4990925;28;20967;-74
2022/07/19 04:34:35;;;;;;;8.27;4.20;;;21.70;50.90;;;21.59;44.03;98440.06;4991066;28;20478;-73
2022/07/19 04:37:03;;;;;;;4.30;3.90;;;22.60;50.00;;;22.69;41.57;98433.09;4993647;28;20465;-74
2022/07/19 04:39:30;;;;;;;11.87;4.17;;;23.60;48.90;;;22.56;41.49;98434.53;4986938;28;20543;-80
2022/07/19 04:41:57;;;;;;;7.10;4.30;;;24.00;48.00;;;22.04;42.54;98423.78;5006814;28;21595;-76
2022/07/19 04:44:25;;;;;;;6.10;3.90;;;23.80;47.90;;;22.05;42.77;98436.41;4987012;28;20464;-77
2022/07/19 04:46:52;;;;;;;4.00;3.60;;;23.70;47.80;;;21.90;42.94;98429.03;5007756;28;20475;-79
2022/07/19 04:49:21;;;;;;;7.13;4.40;;;23.70;47.70;;;;;;4994293;28;20484;-78
2022/07/19 04:51:49;;;;;;;3.70;3.40;;;23.40;48.10;;;22.02;42.72;98429.53;4987066;28;20467;-79
2022/07/19 04:54:16;;;;;;;4.20;3.90;;;23.40;48.00;;;22.65;41.63;98435.59;4990675;28;20469;-77
2022/07/19 04:56:43;;;;;;;5.90;4.57;;;23.60;48.10;;;22.01;42.70;98430.66;4987016;28;20990;-77
2022/07/19 04:59:11;;;;;;;4.30;3.80;;;23.50;47.60;;;22.32;42.13;98427.75;4990738;28;20460;-76
2022/07/19 05:01:38;;;;;;;6.20;4.23;;;23.60;47.80;;;22.80;41.00;98418.13;4988066;28;20830;-79
2022/07/19 05:04:05;;;;;;;10.20;3.83;;;23.90;47.60;;;22.61;41.91;98399.53;4999089;28;20466;-79
2022/07/19 05:06:34;;;;;;;4.57;4.17;;;24.00;47.70;;;23.35;40.12;98428.19;5012833;28;20583;-78
2022/07/19 05:09:02;;;;;;;4.07;3.40;;;24.40;47.20;;;23.91;38.68;98434.25;4995564;28;20470;-79
2022/07/19 05:11:29;;;;;;;4.97;3.43;;;24.90;46.70;;;23.67;39.20;98424.00;4992185;28;20462;-79
2022/07/19 05:13:57;;;;;;;5.90;3.60;;;25.00;46.40;;;23.46;38.92;98385.63;5015094;28;20470;-78
2022/07/19 05:16:24;;;;;;;4.40;3.60;;;25.10;46.40;;;24.26;38.00;98428.59;5013012;28;20444;-80
2022/07/19 05:18:51;;;;;;;8.17;4.57;;;25.30;46.10;;;25.00;38.14;98421.78;4997073;28;20464;-79
2022/07/19 05:21:19;;;;;;;5.23;3.40;;;25.80;46.30;;;23.97;38.54;98438.59;4993344;28;20458;-76
2022/07/19 05:23:48;;;;;;;4.97;3.87;;;25.80;45.70;;;23.84;40.29;98428.25;4997137;28;20447;-76
2022/07/19 05:26:16;;;;;;;3.60;3.30;;;25.30;46.90;;;24.19;38.08;98426.22;4997143;28;20480;-75
2022/07/19 05:28:43;;;;;;;3.93;3.63;;;25.80;45.70;;;23.50;39.34;98429.97;4996898;28;20475;-78
2022/07/19 05:31:10;;;;;;;3.80;3.50;;;25.30;45.60;;;24.01;38.41;98428.59;4995792;28;20995;-79
2022/07/19 05:33:38;;;;;;;3.80;3.43;;;25.50;45.70;;;24.64;37.44;98427.78;5001729;28;20463;-78
2022/07/19 05:36:06;;;;;;;5.90;3.43;;;25.80;45.50;;;25.22;36.19;98425.81;4998424;28;20455;-77
2022/07/19 05:38:34;;;;;;;7.07;5.70;;;26.30;45.30;;;26.09;34.28;98430.88;5002602;28;20456;-79
2022/07/19 05:41:03;;;;;;;4.67;4.30;;;26.90;44.60;;;25.25;36.20;98436.25;4999969;28;20498;-78
2022/07/19 05:43:30;;;;;;;5.50;4.50;;;26.90;44.40;;;25.12;36.52;98430.41;5000227;28;20471;-74
2022/07/19 05:45:58;;;;;;;8.87;5.37;;;27.00;44.20;;;25.52;35.69;98427.28;4991175;28;20577;-74
2022/07/19 05:48:25;;;;;;;7.23;4.67;;;26.90;44.50;;;26.22;34.54;98407.94;4996312;28;20462;-76
2022/07/19 05:50:52;;;;;;;5.67;4.60;;;27.20;44.40;;;26.92;33.29;98418.00;4999512;28;20462;-77
2022/07/19 05:53:20;;;;;;;4.33;4.03;;;27.70;44.10;;;27.27;32.72;98421.84;5009562;28;20455;-78
2022/07/19 05:55:48;;;;;;;4.60;3.87;;;28.10;43.70;;;28.15;31.04;98421.47;5010177;28;20477;-77
2022/07/19 05:58:17;;;;;;;9.40;4.67;;;29.20;43.20;;;26.93;33.37;98426.03;5015687;28;20475;-75
2022/07/19 06:01:17;;;;;;;5.83;4.73;;;28.90;43.00;;;25.94;34.77;98432.03;5001556;28;20463;-81
2022/07/19 06:03:33;;;;;;;8.97;5.80;;;28.00;43.10;;;26.30;35.20;98425.75;5002044;28;20463;-79
2022/07/19 06:06:01;;;;;;;4.33;3.97;;;27.80;43.80;;;26.70;34.14;98419.63;4998426;28;20482;-81
2022/07/19 06:08:28;;;;;;;6.20;5.40;;;28.00;43.60;;;27.28;33.04;98420.72;5004642;28;20460;-76
2022/07/19 06:10:55;;;;;;;4.30;3.90;;;28.30;43.50;;;28.04;31.59;98417.34;4999015;28;20469;-75
2022/07/19 06:13:25;;;;;;;3.80;3.50;;;28.90;42.90;;;28.16;31.31;98414.75;4999392;28;20462;-75
2022/07/19 06:15:52;;;;;;;4.43;3.67;;;29.10;42.70;;;29.01;30.44;98414.72;4997149;28;20460;-73
2022/07/19 06:18:20;;;;;;;4.80;3.80;;;30.00;42.40;;;28.40;30.73;98416.28;4995214;28;21051;-80
2022/07/19 06:20:47;;;;;;;5.03;3.40;;;30.00;42.00;;;29.31;30.21;98423.19;4999604;28;20966;-77
2022/07/19 06:23:15;;;;;;;9.50;4.40;;;30.50;41.90;;;28.32;30.85;98406.00;4996026;28;20975;-73
2022/07/19 06:25:43;;;;;;;3.50;3.30;;;30.40;41.50;;;27.51;32.51;98423.47;4988359;28;20471;-81
2022/07/19 06:28:10;;;;;;;4.13;3.30;;;29.80;41.90;;;25.96;35.25;98421.47;4992438;28;20975;-83
2022/07/19 06:30:39;;;;;;;5.70;3.67;;;27.90;42.90;;;24.29;38.54;98415.03;5001099;28;20471;-79
2022/07/19 06:33:07;;;;;;;3.90;3.60;;;26.10;44.40;;;23.81;40.11;98418.63;5012375;28;20531;-85
2022/07/19 06:35:35;;;;;;;4.43;3.20;;;25.00;45.70;;;23.63;39.77;98420.22;4993375;28;20546;-81
2022/07/19 06:38:02;;;;;;;7.10;4.60;;;24.60;46.00;;;23.72;39.99;98423.16;4992731;28;20472;-80
2022/07/19 06:40:30;;;;;;;3.40;3.03;;;24.50;46.20;;;23.82;40.03;98403.72;4994275;28;20493;-82
2022/07/19 06:42:57;;;;;;;6.33;3.37;;;24.50;46.60;;;23.86;40.08;98414.97;4992194;28;20506;-80
2022/07/19 06:45:25;;;;;;;3.70;3.43;;;24.50;46.60;;;23.63;40.41;98418.25;4990022;28;20552;-84
2022/07/19 06:47:53;;;;;;;4.93;3.57;;;24.40;46.70;;;23.69;40.43;98410.75;4994038;28;20455;-83
2022/07/19 06:50:22;;;;;;;7.77;4.30;;;24.40;46.80;;;23.73;40.48;98411.84;4994011;28;20452;-80
2022/07/19 06:52:49;;;;;;;5.93;3.87;;;24.40;46.90;;;23.88;41.05;98412.75;4994127;28;20462;-85
2022/07/19 06:55:17;;;;;;;9.70;4.10;;;24.50;47.60;;;23.76;40.60;98402.97;4990967;28;20475;-81
2022/07/19 06:57:44;;;;;;;8.93;4.00;;;24.50;47.10;;;24.09;39.91;98407.03;5009009;28;20974;-79
2022/07/19 07:00:13;;;;;;;5.30;3.70;;;24.70;46.90;;;24.20;39.61;98414.06;4998718;28;20463;-83
2022/07/19 07:02:42;;;;;;;5.23;3.33;;;24.80;46.70;;;24.02;39.50;98399.91;4995472;28;20546;-80
2022/07/19 07:05:12;;;;;;;4.60;3.37;;;24.80;46.60;;;24.18;39.51;98405.22;4995420;28;20462;-81
2022/07/19 07:07:41;;;;;;;3.67;3.33;;;24.90;46.60;;;24.37;38.34;98412.72;4994159;28;20486;-82
2022/07/19 07:10:10;;;;;;;4.00;3.47;;;25.00;46.10;;;24.44;39.18;98402.13;4993565;28;21259;-80
2022/07/19 07:12:37;;;;;;;6.63;3.23;;;25.10;46.50;;;24.56;38.38;98410.78;4989916;28;21042;-80
2022/07/19 07:15:07;;;;;;;4.60;3.20;;;25.10;46.20;;;24.78;38.19;98403.84;4988613;28;20475;-81
2022/07/19 07:17:34;;;;;;;5.33;2.93;;;25.40;46.40;;;24.96;37.75;98406.91;5006022;28;20470;-80
2022/07/19 07:20:02;;;;;;;7.67;3.77;;;25.50;46.10;;;25.03;37.31;98401.81;5000914;28;20525;-82
2022/07/19 07:22:31;;;;;;;4.33;3.77;;;25.60;45.70;;;25.09;37.37;98405.31;5001966;28;23317;-82
2022/07/19 07:24:59;;;;;;;8.50;3.67;;;25.70;45.70;;;25.44;37.27;98405.81;4997826;28;20455;-86
2022/07/19 07:27:26;;;;;;;3.90;3.50;;;25.90;46.00;;;25.52;36.60;98399.63;5001777;28;20510;-88
2022/07/19 07:29:54;;;;;;;4.60;3.30;;;26.10;45.70;;;25.65;36.75;98392.44;5009246;28;20459;-88
2022/07/19 07:32:21;;;;;;;7.50;3.60;;;26.20;45.70;;;25.80;36.17;98396.03;5030816;28;20540;-89
2022/07/19 07:34:48;;;;;;;6.23;3.20;;;26.30;45.50;;;25.88;36.63;98392.56;5013723;28;20456;-81
2022/07/19 07:37:18;;;;;;;7.10;3.40;;;26.50;45.40;;;26.02;35.77;98387.84;5021428;28;20463;-82
2022/07/19 07:39:47;;;;;;;4.87;3.27;;;26.50;45.20;;;26.19;35.79;98391.13;5007548;28;20494;-84
2022/07/19 07:42:14;;;;;;;5.87;2.87;;;26.70;45.20;;;26.30;34.28;98381.47;5019553;28;20460;-87
2022/07/19 07:44:42;;;;;;;5.00;3.00;;;26.80;44.50;;;26.69;34.02;98382.78;5011760;28;20482;-81
2022/07/19 07:47:09;;;;;;;3.90;2.90;;;27.10;44.40;;;26.76;33.63;98385.09;5028692;28;20487;-89
2022/07/19 07:49:37;;;;;;;3.90;2.83;;;27.20;44.10;;;26.91;33.37;98381.19;5015933;28;20472;-80
2022/07/19 07:52:06;;;;;;;2.80;2.43;;;27.40;43.80;;;27.00;32.64;98373.75;5012303;28;20552;-84
2022/07/19 07:54:33;;;;;;;3.27;2.80;;;27.50;43.30;;;27.09;32.16;98368.25;5009867;28;20476;-76
2022/07/19 07:57:02;;;;;;;3.00;2.70;;;27.60;42.90;;;27.33;31.63;98369.84;5004245;28;20448;-77
2022/07/19 07:59:29;;;;;;;3.47;2.47;;;27.70;43.00;;;27.15;31.34;98332.91;4997604;28;20462;-78
2022/07/19 08:01:56;;;;;;;3.20;2.20;;;27.90;42.50;;;27.44;31.17;98368.44;4997654;28;20539;-78
2022/07/19 08:04:24;;;;;;;3.40;2.40;;;27.90;42.30;;;27.49;30.82;98363.88;4997762;28;20487;-78
2022/07/19 08:06:51;;;;;;;2.73;2.40;;;28.00;42.20;;;27.63;30.81;98369.38;5002552;28;20486;-79
2022/07/19 08:09:18;;;;;;;3.07;2.77;;;28.10;42.00;;;27.66;30.36;98361.19;4998788;28;20522;-78
2022/07/19 08:11:46;;;;;;;4.47;2.30;;;28.10;41.90;;;27.71;30.57;98366.63;4999234;28;21297;-79
2022/07/19 08:14:15;;;;;;;2.60;2.40;;;28.20;42.10;;;27.70;30.65;98359.44;5012111;28;20471;-79
2022/07/19 08:16:42;;;;;;;2.70;2.50;;;28.20;42.00;;;27.93;30.43;98356.56;5013890;28;20447;-79
2022/07/19 08:19:09;;;;;;;2.77;2.57;;;28.30;42.00;;;27.95;29.90;98354.28;5011646;28;20459;-78
2022/07/19 08:21:36;;;;;;;2.97;2.23;;;28.40;41.80;;;28.23;29.91;98358.78;5015561;28;20528;-78
2022/07/19 08:24:05;;;;;;;5.60;4.03;;;28.60;41.80;;;28.31;29.29;98359.94;5005226;28;20455;-78
2022/07/19 08:26:32;;;;;;;2.80;2.07;;;28.80;41.20;;;28.46;29.15;98355.84;4992729;28;20467;-79
2022/07/19 08:28:59;;;;;;;3.30;2.40;;;28.80;41.10;;;28.39;28.86;98357.16;5004699;28;21005;-78
2022/07/19 08:31:28;;;;;;;3.47;2.20;;;28.90;41.10;;;28.68;28.52;98352.06;4990965;28;20530;-78
2022/07/19 08:33:56;;;;;;;3.80;2.17;;;29.00;40.90;;;28.78;28.30;98353.69;4993895;28;20451;-76
2022/07/19 08:36:23;;;;;;;5.83;2.77;;;29.20;40.70;;;28.73;28.15;98340.78;4991666;28;20451;-77
2022/07/19 08:38:50;;;;;;;3.43;2.43;;;29.20;40.50;;;28.70;27.88;98336.72;4998899;28;20463;-77
2022/07/19 08:41:18;;;;;;;4.70;2.50;;;29.20;40.20;;;28.77;26.94;98344.56;5000238;28;20971;-78
2022/07/19 08:43:45;;;;;;;2.70;2.50;;;29.30;39.80;;;28.70;27.85;98349.78;4994876;28;20471;-78
2022/07/19 08:46:13;;;;;;;2.93;2.17;;;29.20;40.20;;;28.98;27.40;98355.00;4995921;28;20954;-78
2022/07/19 08:48:42;;;;;;;6.50;2.40;;;29.30;40.00;;;29.14;26.95;98352.53;4995720;28;20459;-78
2022/07/19 08:51:10;;;;;;;2.70;2.50;;;29.40;39.80;;;29.09;27.07;98334.06;4992809;28;21318;-76
2022/07/19 08:53:40;;;;;;;2.60;2.40;;;29.50;39.70;;;29.26;25.93;98349.06;4995997;28;20462;-78
2022/07/19 08:58:49;;;;;;;2.70;2.50;;;29.70;39.00;;;29.43;26.54;98347.41;4991874;28;20823;-80
2022/07/19 09:01:16;;;;;;;4.60;2.93;;;29.70;39.50;;;29.55;26.46;98333.59;5012133;28;20499;-81
2022/07/19 09:04:09;;;;;;;6.73;2.67;;;29.90;39.40;;;29.71;25.49;98344.97;4997390;28;20460;-79
2022/07/19 09:06:47;;;;;;;3.07;2.10;;;30.00;39.00;;;29.59;25.40;98312.28;4996815;28;20479;-79
2022/07/19 09:09:18;;;;;;;4.93;2.90;;;30.10;38.60;;;30.01;25.61;98344.16;5012106;28;20490;-79
2022/07/19 09:11:50;;;;;;;4.27;2.43;;;30.30;38.90;;;30.14;25.21;98340.34;4987108;28;20480;-79
2022/07/19 09:14:19;;;;;;;2.43;1.90;;;30.50;38.70;;;29.93;24.63;98338.28;4997462;28;20466;-78
2022/07/19 09:16:57;;;;;;;2.63;2.43;;;30.40;38.30;;;29.89;24.65;98337.34;4997359;28;20459;-77
2022/07/19 09:19:27;;;;;;;2.87;2.57;;;30.30;38.00;;;29.82;25.34;98325.94;4989457;28;20518;-79
2022/07/19 09:22:01;;;;;;;2.40;2.00;;;30.20;38.20;;;29.78;24.81;98336.09;4991909;28;20463;-79
2022/07/19 09:24:31;;;;;;;5.17;2.90;;;30.20;38.30;;;29.91;24.48;98326.69;4994057;28;20455;-80
2022/07/19 09:27:05;;;;;;;2.60;2.40;;;30.30;38.10;;;30.15;24.71;98332.78;4994248;28;20514;-79
2022/07/19 09:29:35;;;;;;;3.63;2.63;;;30.40;38.40;;;30.23;24.27;98312.41;5010533;28;20467;-81
2022/07/19 09:32:08;;;;;;;2.40;2.20;;;30.60;38.00;;;30.20;24.18;98319.47;4995429;28;20468;-80
2022/07/19 09:34:43;;;;;;;4.90;2.40;;;30.60;37.90;;;30.07;24.47;98326.13;4990978;28;20467;-79
2022/07/19 09:37:19;;;;;;;3.40;2.63;;;30.50;37.60;;;30.31;24.11;98324.66;4992034;28;20467;-79
2022/07/19 09:39:51;;;;;;;2.50;2.30;;;30.60;37.70;;;30.54;23.83;98325.09;5006977;28;20474;-78
2022/07/19 09:42:21;;;;;;;2.93;2.50;;;30.80;37.90;;;30.56;24.07;98322.78;4996816;28;20459;-78
2022/07/19 09:45:00;;;;;;;4.13;2.50;;;30.90;37.60;;;30.81;23.05;98325.72;4995851;28;20482;-79
2022/07/19 09:47:33;;;;;;;4.90;2.50;;;31.00;37.50;;;30.70;23.63;98328.09;4997918;28;20537;-80
2022/07/19 09:50:04;;;;;;;3.57;2.33;;;31.10;37.40;;;30.64;23.20;98332.25;4997177;28;20466;-78
2022/07/19 09:52:33;;;;;;;4.17;2.70;;;31.10;37.40;;;30.80;23.17;98319.31;4992638;28;20464;-78
2022/07/19 09:55:03;;;;;;;6.37;2.70;;;31.10;37.40;;;30.65;23.74;98322.75;5014878;28;20544;-79
2022/07/19 09:57:37;;;;;;;3.90;3.00;;;31.10;37.30;;;30.84;23.37;98313.88;4992486;28;20458;-80
2022/07/19 10:00:08;;;;;;;2.97;2.40;;;31.20;37.50;;;30.83;23.03;98322.56;4997671;28;21155;-78
2022/07/19 10:02:38;;;;;;;2.90;2.60;;;31.20;37.40;;;30.60;23.95;98317.34;5013367;28;20897;-79
2022/07/19 10:05:10;;;;;;;3.00;2.70;;;31.00;37.30;;;30.86;23.68;98322.69;4993399;28;20525;-81
2022/07/19 10:07:38;;;;;;;4.17;2.40;;;31.10;37.30;;;30.77;22.28;98280.97;5013862;28;20572;-80
2022/07/19 10:10:10;;;;;;;2.50;2.30;;;31.30;36.60;;;31.01;22.53;98318.44;4995565;28;20467;-78
2022/07/19 10:12:38;;;;;;;2.40;2.20;;;31.30;36.50;;;31.11;22.17;98314.41;5013397;28;20470;-80
2022/07/19 10:15:07;;;;;;;2.53;2.33;;;31.40;36.40;;;31.16;21.92;98310.56;4993858;28;20479;-80
2022/07/19 10:17:40;;;;;;;4.30;2.60;;;31.50;36.40;;;31.19;22.38;98307.09;4993806;28;20466;-78
2022/07/19 10:20:10;;;;;;;2.10;2.00;;;31.50;36.70;;;31.10;21.62;98308.00;4995482;28;20471;-78
2022/07/19 10:22:41;;;;;;;2.63;2.43;;;31.60;36.10;;;31.10;21.63;98299.63;4997586;28;20460;-78
2022/07/19 10:25:14;;;;;;;2.37;2.17;;;31.50;36.10;;;31.20;21.88;98297.56;5014408;28;20491;-79
2022/07/19 10:27:45;;;;;;;2.63;2.40;;;31.60;36.10;;;31.31;22.09;98304.31;4998874;28;20511;-79
2022/07/19 10:30:26;;;;;;;2.73;2.00;;;31.70;36.30;;;31.38;21.53;98296.22;4997437;28;20456;-81
2022/07/19 10:32:57;;;;;;;2.97;2.30;;;31.60;35.90;;;31.24;21.60;98281.78;5001524;28;20452;-81